首页
METAR-TAF:

METAR-TAF

机场 :

Bedford, 宾夕法尼亚州, 美国

纬度: 40-05-10N, 经度: 078-30-49W, 海拔: 354米

当前天气观测

该预报发布于40分钟前的07:30 UTC
风速5节,风向东南
温度 -2°C
湿度 59%
气压 1029 hPa
能見度: 16.1公里
天空无云

METAR: KHMZ 130730Z AUTO 14005KT 10SM CLR M02/M09 A3038 RMK AO2 T10251095

时间: 03:10 (08:10 UTC)


TAF: 丢失

超过4000个机场的气象观测和天气预报(METAR&TAF报告)。

可查询的气象台以黄色和红色小点在地图上表示。

将鼠标移到小点上方,可查看气象台名称。

然后点击查看天气观测和预报。

如需切换地图:点击带黑十字的绿色按钮放大地图;点击带横线的绿色按钮缩小地图;或者点击绿色箭头查看邻近地区的地图。


METAR-TAF: